Impacts METAR Board
IDs:

KSSF - San Antonio/Stinson, TX, US

Updated at: 0000 UTC 05 Jul 2022
Potential Impact None Slight Moderate High
Time 04/12Z 04/13Z 04/14Z 04/15Z 04/16Z 04/17Z 04/18Z 04/19Z 04/20Z 04/21Z 04/22Z 04/23Z 05/00Z
Temp76 78 81 83 89 93 93 96 99 102 99 99 98
Dewpt74 75 75 74 73 71 69 67 65 65 64 68 69
Altim30.02 30.04 30.04 30.04 30.03 30.03 30.02 30.00 29.97 29.94 29.92 29.91 29.90
VIS10 10 10 10 10 10 10 10 10 10 10 10 10
CIG25 14 14 19 40 -- -- -- -- -- -- -- --
CoverBKNOVCOVCBKNBKNSCTSCTSCTSCTFEWSCTSCTFEW
FltCatMVFRMVFRMVFRMVFRVFRVFRVFRVFRVFRVFRVFRVFRVFR
WX--------------------------
WDir0150160180160180180150150160190130140
WSpd4 6 6 9 9 8 11 11 12 10 11 16 10
WGst-- -- -- 17 19 18 -- 22 18 -- 20 23 23
Raw hourly METARs
KSSF 041153Z VRB04KT 10SM BKN025 24/23 A3002 RMK AO2 SLP153 T02440233 10267 20244 50002 $
KSSF 041253Z 15006KT 10SM BKN014 BKN020 OVC025 26/24 A3004 RMK AO2 SLP158 T02560239 $
KSSF 041353Z 16006KT 10SM BKN014 BKN020 OVC025 27/24 A3004 RMK AO2 SLP157 T02720239 $
KSSF 041453Z 18009G17KT 10SM BKN019 BKN025 BKN030 28/23 A3004 RMK AO2 SLP160 T02830233 51007 $
KSSF 041600Z 16009G19KT 10SM BKN040 32/23 A3003 RMK AO2 T03170228 $
KSSF 041653Z 18008G18KT 10SM SCT040 SCT055 34/22 A3003 RMK AO2 SLP156 T03390217 $
KSSF 041753Z 18011KT 10SM SCT050 34/21 A3002 RMK AO2 SLP152 T03390206 10356 20244 58007 $
KSSF 041853Z 15011G22KT 10SM SCT065 36/19 A3000 RMK AO2 SLP146 T03560194 $
KSSF 041953Z 15012G18KT 10SM SCT070 37/18 A2997 RMK AO2 SLP133 T03720183 $
KSSF 042053Z 16010KT 130V230 10SM FEW075 39/18 A2994 RMK AO2 PK WND 15026/2006 SLP123 T03890183 58027 $
KSSF 042153Z 19011G20KT 10SM SCT080 37/18 A2992 RMK AO2 SLP117 T03720178 $
KSSF 042253Z 13016G23KT 10SM SCT080 37/20 A2991 RMK AO2 PK WND 13027/2228 WSHFT 2214 SLP112 T03720200 $
KSSF 042353Z 14010G23KT 10SM FEW075 37/21 A2990 RMK AO2 SLP111 T03670206 10394 20333 56014 $



Page loaded:  00:33 UTC  |   05:33 PM Pacific  |   06:33 PM Mountain  |   07:33 PM Central  |   08:33 PM Eastern

 

ADVISORIES

FORECASTS

FORECASTS

OBSERVATIONS

USER TOOLS

ABOUT US